createdAt,value
2018-06-24T00:00:28.788Z,1010.7
2018-06-24T00:01:30.262Z,1010.7
2018-06-24T00:02:31.611Z,1010.7
2018-06-24T00:03:32.964Z,1010.7
2018-06-24T00:04:34.365Z,1010.8
2018-06-24T00:05:35.688Z,1010.7
2018-06-24T00:06:37.042Z,1010.7
2018-06-24T00:07:38.398Z,1010.8
2018-06-24T00:08:39.777Z,1010.7
2018-06-24T00:09:41.129Z,1010.7
2018-06-24T00:10:42.492Z,1010.7
2018-06-24T00:11:43.842Z,1010.7
2018-06-24T00:12:45.193Z,1010.7
2018-06-24T00:13:46.583Z,1010.7
2018-06-24T00:14:47.932Z,1010.6
2018-06-24T00:15:49.333Z,1010.7
2018-06-24T00:16:50.723Z,1010.6
2018-06-24T00:17:52.088Z,1010.6
2018-06-24T00:18:53.463Z,1010.6
2018-06-24T00:19:54.819Z,1010.6
2018-06-24T00:20:56.174Z,1010.6
2018-06-24T00:21:57.539Z,1010.6
2018-06-24T00:22:58.903Z,1010.6
2018-06-24T00:24:00.255Z,1010.5
2018-06-24T00:25:01.627Z,1010.5
2018-06-24T00:26:02.980Z,1010.6
2018-06-24T00:27:04.339Z,1010.5
2018-06-24T00:28:05.694Z,1010.5
2018-06-24T00:29:07.079Z,1010.5
2018-06-24T00:30:08.437Z,1010.5
2018-06-24T00:31:09.794Z,1010.5
2018-06-24T00:32:11.177Z,1010.5
2018-06-24T00:33:12.504Z,1010.5
2018-06-24T00:34:13.867Z,1010.5
2018-06-24T00:35:15.219Z,1010.5
2018-06-24T00:36:16.589Z,1010.5
2018-06-24T00:37:18.036Z,1010.5
2018-06-24T00:38:19.317Z,1010.5
2018-06-24T00:39:20.684Z,1010.5
2018-06-24T00:40:22.043Z,1010.4
2018-06-24T00:41:23.404Z,1010.4
2018-06-24T00:42:24.769Z,1010.4
2018-06-24T00:43:26.139Z,1010.4
2018-06-24T00:44:27.495Z,1010.3
2018-06-24T00:45:28.852Z,1010.3
2018-06-24T00:46:30.224Z,1010.4
2018-06-24T00:47:31.597Z,1010.3
2018-06-24T00:48:32.963Z,1010.4
2018-06-24T00:49:34.319Z,1010.3
2018-06-24T00:50:35.678Z,1010.3
2018-06-24T00:51:37.037Z,1010.3
2018-06-24T00:52:38.397Z,1010.3
2018-06-24T00:53:39.749Z,1010.3
2018-06-24T00:54:41.109Z,1010.3
2018-06-24T00:55:42.470Z,1010.3
2018-06-24T00:56:43.817Z,1010.3
2018-06-24T00:57:45.182Z,1010.3
2018-06-24T00:58:46.554Z,1010.2
2018-06-24T00:59:47.915Z,1010.2
2018-06-24T01:00:49.300Z,1010.2
2018-06-24T01:01:50.667Z,1010.2
2018-06-24T01:02:52.020Z,1010.2
2018-06-24T01:03:53.379Z,1010.2
2018-06-24T01:04:54.742Z,1010.2
2018-06-24T01:05:56.146Z,1010.2
2018-06-24T01:06:57.488Z,1010.2
2018-06-24T01:07:58.874Z,1010.2
2018-06-24T01:09:00.211Z,1010.2
2018-06-24T01:10:01.580Z,1010.2
2018-06-24T01:11:02.943Z,1010.2
2018-06-24T01:12:04.298Z,1010.2
2018-06-24T01:13:05.665Z,1010.2
2018-06-24T01:14:07.018Z,1010.2
2018-06-24T01:15:08.381Z,1010.1
2018-06-24T01:16:09.747Z,1010.2
2018-06-24T01:17:11.103Z,1010.1
2018-06-24T01:18:12.477Z,1010.1
2018-06-24T01:19:13.845Z,1010.1
2018-06-24T01:20:15.208Z,1010.1
2018-06-24T01:21:16.578Z,1010.1
2018-06-24T01:22:17.934Z,1010.1
2018-06-24T01:23:19.341Z,1010.1
2018-06-24T01:24:20.693Z,1010.1
2018-06-24T01:25:22.053Z,1010.0
2018-06-24T01:26:23.433Z,1010.1
2018-06-24T01:27:24.799Z,1010.0
2018-06-24T01:28:26.161Z,1010.0
2018-06-24T01:29:27.508Z,1010.0
2018-06-24T01:30:28.860Z,1010.0
2018-06-24T01:31:30.216Z,1010.0
2018-06-24T01:32:31.608Z,1010.0
2018-06-24T01:33:32.965Z,1010.0
2018-06-24T01:34:34.319Z,1010.0
2018-06-24T01:35:35.677Z,1010.0
2018-06-24T01:36:37.055Z,1009.9
2018-06-24T01:37:38.406Z,1009.9
2018-06-24T01:38:39.764Z,1010.0
2018-06-24T01:39:41.269Z,1010.0
2018-06-24T01:40:42.630Z,1010.0
2018-06-24T01:41:43.985Z,1010.0
2018-06-24T01:42:45.353Z,1010.0
2018-06-24T01:43:46.715Z,1010.0
2018-06-24T01:44:48.060Z,1010.0
2018-06-24T01:45:49.448Z,1010.0
2018-06-24T01:46:50.809Z,1010.0
2018-06-24T01:47:52.172Z,1010.0
2018-06-24T01:48:53.520Z,1010.0
2018-06-24T01:49:54.885Z,1010.0
2018-06-24T01:50:56.245Z,1010.0
2018-06-24T01:51:57.594Z,1010.0
2018-06-24T01:52:58.965Z,1009.9
2018-06-24T01:54:00.319Z,1009.9
2018-06-24T01:55:01.719Z,1010.0
2018-06-24T01:56:03.063Z,1009.9
2018-06-24T01:57:04.434Z,1009.9
2018-06-24T01:58:05.779Z,1009.9
2018-06-24T01:59:07.151Z,1009.8
2018-06-24T02:00:08.510Z,1009.9
2018-06-24T02:01:09.868Z,1009.9
2018-06-24T02:02:11.224Z,1009.9
2018-06-24T02:03:12.590Z,1009.9
2018-06-24T02:04:13.935Z,1009.9
2018-06-24T02:05:15.298Z,1009.9
2018-06-24T02:06:16.610Z,1009.9
2018-06-24T02:07:17.955Z,1009.9
2018-06-24T02:08:20.295Z,1009.9
2018-06-24T02:09:21.657Z,1009.9
2018-06-24T02:10:23.016Z,1009.8
2018-06-24T02:11:24.376Z,1009.9
2018-06-24T02:12:25.735Z,1009.8
2018-06-24T02:13:27.095Z,1009.9
2018-06-24T02:14:28.439Z,1009.9
2018-06-24T02:15:29.800Z,1009.8
2018-06-24T02:16:31.164Z,1009.8
2018-06-24T02:17:32.520Z,1009.8
2018-06-24T02:18:33.878Z,1009.8
2018-06-24T02:19:35.256Z,1009.8
2018-06-24T02:20:36.619Z,1009.8
2018-06-24T02:21:37.981Z,1009.8
2018-06-24T02:22:39.343Z,1009.8
2018-06-24T02:23:40.699Z,1009.8
2018-06-24T02:24:42.064Z,1009.8
2018-06-24T02:25:43.421Z,1009.8
2018-06-24T02:26:44.769Z,1009.8
2018-06-24T02:27:46.124Z,1009.8
2018-06-24T02:28:47.514Z,1009.7
2018-06-24T02:29:48.853Z,1009.8
2018-06-24T02:30:50.252Z,1009.8
2018-06-24T02:31:51.610Z,1009.7
2018-06-24T02:32:52.959Z,1009.8
2018-06-24T02:33:54.320Z,1009.8
2018-06-24T02:34:55.683Z,1009.7
2018-06-24T02:35:57.066Z,1009.8
2018-06-24T02:36:58.429Z,1009.8
2018-06-24T02:37:59.775Z,1009.8
2018-06-24T02:39:01.145Z,1009.8
2018-06-24T02:40:02.496Z,1009.7
2018-06-24T02:41:03.889Z,1009.7
2018-06-24T02:42:05.247Z,1009.7
2018-06-24T02:43:06.606Z,1009.8
2018-06-24T02:44:07.965Z,1009.8
2018-06-24T02:45:09.324Z,1009.8
2018-06-24T02:46:10.680Z,1009.7
2018-06-24T02:47:12.054Z,1009.7
2018-06-24T02:48:13.396Z,1009.7
2018-06-24T02:49:14.779Z,1009.7
2018-06-24T02:50:16.160Z,1009.7
2018-06-24T02:51:17.504Z,1009.7
2018-06-24T02:52:18.905Z,1009.7
2018-06-24T02:53:20.250Z,1009.7
2018-06-24T02:54:21.604Z,1009.7
2018-06-24T02:55:22.965Z,1009.7
2018-06-24T02:56:24.320Z,1009.7
2018-06-24T02:57:25.695Z,1009.7
2018-06-24T02:58:27.071Z,1009.7
2018-06-24T02:59:28.427Z,1009.6
2018-06-24T03:00:29.775Z,1009.6
2018-06-24T03:01:31.172Z,1009.6
2018-06-24T03:02:32.535Z,1009.6
2018-06-24T03:03:33.892Z,1009.6
2018-06-24T03:04:35.259Z,1009.6
2018-06-24T03:05:36.650Z,1009.6
2018-06-24T03:06:38.001Z,1009.6
2018-06-24T03:07:39.351Z,1009.6
2018-06-24T03:08:40.740Z,1009.6
2018-06-24T03:09:42.096Z,1009.6
2018-06-24T03:10:43.456Z,1009.6
2018-06-24T03:11:44.822Z,1009.5
2018-06-24T03:12:46.174Z,1009.6
2018-06-24T03:13:47.552Z,1009.6
2018-06-24T03:14:48.925Z,1009.6
2018-06-24T03:15:50.261Z,1009.6
2018-06-24T03:16:51.625Z,1009.6
2018-06-24T03:17:52.981Z,1009.6
2018-06-24T03:18:54.351Z,1009.6
2018-06-24T03:19:55.720Z,1009.6
2018-06-24T03:20:57.111Z,1009.6
2018-06-24T03:21:58.479Z,1009.6
2018-06-24T03:22:59.834Z,1009.6
2018-06-24T03:24:01.189Z,1009.6
2018-06-24T03:25:02.546Z,1009.6
2018-06-24T03:26:03.900Z,1009.6
2018-06-24T03:27:05.287Z,1009.7
2018-06-24T03:28:06.689Z,1009.7
2018-06-24T03:29:08.049Z,1009.7
2018-06-24T03:30:09.405Z,1009.7
2018-06-24T03:31:10.796Z,1009.6
2018-06-24T03:32:12.179Z,1009.7
2018-06-24T03:33:13.601Z,1009.7
2018-06-24T03:34:14.976Z,1009.6
2018-06-24T03:35:16.345Z,1009.6
2018-06-24T03:36:17.760Z,1009.6
2018-06-24T03:37:19.132Z,1009.6
2018-06-24T03:38:20.486Z,1009.6
2018-06-24T03:39:21.865Z,1009.5
2018-06-24T03:40:23.279Z,1009.6
2018-06-24T03:41:24.605Z,1009.6
2018-06-24T03:42:25.967Z,1009.5
2018-06-24T03:43:27.345Z,1009.6
2018-06-24T03:44:28.702Z,1009.6
2018-06-24T03:45:30.080Z,1009.6
2018-06-24T03:46:31.441Z,1009.7
2018-06-24T03:47:32.820Z,1009.7
2018-06-24T03:48:34.175Z,1009.7
2018-06-24T03:49:35.542Z,1009.7
2018-06-24T03:50:36.931Z,1009.6
2018-06-24T03:51:38.280Z,1009.6
2018-06-24T03:52:39.632Z,1009.7
2018-06-24T03:53:40.991Z,1009.7
2018-06-24T03:54:42.356Z,1009.6
2018-06-24T03:55:43.720Z,1009.7
2018-06-24T03:56:45.100Z,1009.8
2018-06-24T03:57:46.524Z,1009.8
2018-06-24T03:58:47.897Z,1009.7
2018-06-24T03:59:49.281Z,1009.7
2018-06-24T04:00:50.652Z,1009.7
2018-06-24T04:01:52.022Z,1009.8
2018-06-24T04:02:53.377Z,1009.7
2018-06-24T04:03:54.745Z,1009.8
2018-06-24T04:04:56.116Z,1009.8
2018-06-24T04:05:57.512Z,1009.8
2018-06-24T04:06:58.880Z,1009.8
2018-06-24T04:08:00.249Z,1009.9
2018-06-24T04:09:01.616Z,1009.9
2018-06-24T04:10:02.967Z,1009.9
2018-06-24T04:11:04.330Z,1009.9
2018-06-24T04:12:05.708Z,1009.9
2018-06-24T04:13:07.063Z,1009.9
2018-06-24T04:14:08.432Z,1009.9
2018-06-24T04:15:09.801Z,1009.9
2018-06-24T04:16:11.170Z,1009.9
2018-06-24T04:17:12.529Z,1009.9
2018-06-24T04:18:13.886Z,1009.9
2018-06-24T04:19:15.259Z,1009.9
2018-06-24T04:20:16.647Z,1010.0
2018-06-24T04:21:18.441Z,1010.0
2018-06-24T04:22:20.386Z,1010.0
2018-06-24T04:23:21.745Z,1010.0
2018-06-24T04:24:23.102Z,1010.0
2018-06-24T04:25:24.516Z,1010.0
2018-06-24T04:26:25.877Z,1010.1
2018-06-24T04:27:27.240Z,1010.0
2018-06-24T04:28:28.601Z,1010.0
2018-06-24T04:29:29.977Z,1010.0
2018-06-24T04:30:31.337Z,1010.0
2018-06-24T04:31:32.700Z,1010.0
2018-06-24T04:32:34.135Z,1009.9
2018-06-24T04:33:35.534Z,1010.0
2018-06-24T04:34:36.880Z,1010.0
2018-06-24T04:35:38.266Z,1010.0
2018-06-24T04:36:39.641Z,1010.0
2018-06-24T04:37:40.997Z,1010.0
2018-06-24T04:38:42.367Z,1010.0
2018-06-24T04:39:43.746Z,1010.0
2018-06-24T04:40:45.107Z,1010.0
2018-06-24T04:41:46.473Z,1010.0
2018-06-24T04:42:47.843Z,1010.0
2018-06-24T04:43:49.235Z,1010.0
2018-06-24T04:44:50.575Z,1009.9
2018-06-24T04:45:51.941Z,1009.9
2018-06-24T04:46:53.305Z,1010.0
2018-06-24T04:47:54.668Z,1009.9
2018-06-24T04:48:56.037Z,1009.9
2018-06-24T04:49:57.407Z,1009.9
2018-06-24T04:50:58.765Z,1009.9
2018-06-24T04:52:00.139Z,1009.9
2018-06-24T04:53:01.497Z,1009.9
2018-06-24T04:54:02.867Z,1009.9
2018-06-24T04:55:04.260Z,1009.9
2018-06-24T04:56:05.623Z,1009.9
2018-06-24T04:57:06.981Z,1009.9
2018-06-24T04:58:08.355Z,1009.9
2018-06-24T04:59:09.720Z,1009.9
2018-06-24T05:00:11.082Z,1009.8
2018-06-24T05:01:12.446Z,1009.7
2018-06-24T05:02:13.821Z,1009.8
2018-06-24T05:03:15.177Z,1009.7
2018-06-24T05:04:16.547Z,1009.8
2018-06-24T05:05:17.915Z,1009.8
2018-06-24T05:06:19.832Z,1009.8
2018-06-24T05:07:21.271Z,1009.8
2018-06-24T05:08:22.667Z,1009.8
2018-06-24T05:09:24.033Z,1009.8
2018-06-24T05:10:25.522Z,1009.8
2018-06-24T05:11:26.898Z,1009.8
2018-06-24T05:12:28.275Z,1009.9
2018-06-24T05:13:29.637Z,1009.8
2018-06-24T05:14:31.003Z,1009.9
2018-06-24T05:15:32.368Z,1009.9
2018-06-24T05:16:33.743Z,1009.9
2018-06-24T05:17:35.111Z,1009.9
2018-06-24T05:18:36.481Z,1009.9
2018-06-24T05:19:37.846Z,1009.8
2018-06-24T05:20:39.213Z,1009.9
2018-06-24T05:21:40.587Z,1009.8
2018-06-24T05:22:41.971Z,1009.9
2018-06-24T05:23:43.337Z,1009.9
2018-06-24T05:24:44.699Z,1010.0
2018-06-24T05:25:46.063Z,1010.0
2018-06-24T05:26:47.434Z,1010.0
2018-06-24T05:27:48.806Z,1010.1
2018-06-24T05:28:50.218Z,1010.0
2018-06-24T05:29:51.581Z,1010.0
2018-06-24T05:30:52.953Z,1010.1
2018-06-24T05:31:54.326Z,1010.0
2018-06-24T05:32:55.686Z,1010.0
2018-06-24T05:33:57.052Z,1010.0
2018-06-24T05:34:58.428Z,1010.0
2018-06-24T05:35:59.785Z,1010.0
2018-06-24T05:37:01.159Z,1010.0
2018-06-24T05:38:02.531Z,1010.1
2018-06-24T05:39:03.959Z,1010.0
2018-06-24T05:40:05.312Z,1010.0
2018-06-24T05:41:06.685Z,1010.0
2018-06-24T05:42:08.056Z,1010.0
2018-06-24T05:43:09.504Z,1010.0
2018-06-24T05:44:10.811Z,1010.0
2018-06-24T05:45:12.176Z,1010.1
2018-06-24T05:46:13.539Z,1010.0
2018-06-24T05:47:14.901Z,1010.1
2018-06-24T05:48:16.273Z,1010.2
2018-06-24T05:49:17.643Z,1010.2
2018-06-24T05:50:19.013Z,1010.1
2018-06-24T05:51:20.406Z,1010.2
2018-06-24T05:52:21.768Z,1010.2
2018-06-24T05:53:23.128Z,1010.3
2018-06-24T05:54:24.554Z,1010.4
2018-06-24T05:55:25.863Z,1010.3
2018-06-24T05:56:27.242Z,1010.5
2018-06-24T05:57:28.601Z,1010.3
2018-06-24T05:58:29.986Z,1010.2
2018-06-24T05:59:31.351Z,1010.3
2018-06-24T06:00:32.714Z,1010.3
2018-06-24T06:01:34.093Z,1010.2
2018-06-24T06:02:35.479Z,1010.3
2018-06-24T06:03:36.887Z,1010.5
2018-06-24T06:04:38.219Z,1010.5
2018-06-24T06:05:39.589Z,1010.3
2018-06-24T06:06:40.952Z,1010.3
2018-06-24T06:07:43.016Z,1010.3
2018-06-24T06:08:44.386Z,1010.4
2018-06-24T06:09:45.753Z,1010.5
2018-06-24T06:10:47.132Z,1010.6
2018-06-24T06:11:48.498Z,1010.7
2018-06-24T06:12:49.896Z,1010.6
2018-06-24T06:13:51.281Z,1010.6
2018-06-24T06:14:52.660Z,1010.7
2018-06-24T06:15:54.029Z,1010.7
2018-06-24T06:16:55.389Z,1010.7
2018-06-24T06:17:56.777Z,1010.7
2018-06-24T06:18:58.158Z,1010.7
2018-06-24T06:19:59.529Z,1010.4
2018-06-24T06:21:00.901Z,1010.5
2018-06-24T06:22:02.307Z,1010.5
2018-06-24T06:23:03.673Z,1010.5
2018-06-24T06:24:05.040Z,1010.5
2018-06-24T06:25:06.422Z,1010.6
2018-06-24T06:26:07.793Z,1010.7
2018-06-24T06:27:09.178Z,1010.9
2018-06-24T06:28:10.543Z,1010.7
2018-06-24T06:29:11.917Z,1010.4
2018-06-24T06:30:13.354Z,1010.4
2018-06-24T06:31:14.619Z,1010.4
2018-06-24T06:32:16.004Z,1010.4
2018-06-24T06:33:17.376Z,1010.4
2018-06-24T06:34:18.750Z,1010.5
2018-06-24T06:35:20.148Z,1010.7
2018-06-24T06:36:21.523Z,1010.8
2018-06-24T06:37:22.889Z,1010.5
2018-06-24T06:38:24.267Z,1010.3
2018-06-24T06:39:25.662Z,1010.3
2018-06-24T06:40:27.025Z,1010.3
2018-06-24T06:41:28.402Z,1010.3
2018-06-24T06:42:29.783Z,1010.4
2018-06-24T06:43:31.149Z,1010.4
2018-06-24T06:44:32.519Z,1010.4
2018-06-24T06:45:34.122Z,1010.6
2018-06-24T06:46:35.247Z,1010.6
2018-06-24T06:47:36.638Z,1010.8
2018-06-24T06:48:38.035Z,1010.8
2018-06-24T06:49:39.407Z,1010.8
2018-06-24T06:50:40.794Z,1010.7
2018-06-24T06:51:42.173Z,1010.7
2018-06-24T06:52:43.550Z,1010.6
2018-06-24T06:53:44.927Z,1010.7
2018-06-24T06:54:46.303Z,1010.6
2018-06-24T06:55:47.680Z,1010.6
2018-06-24T06:56:49.082Z,1011.1
2018-06-24T06:57:50.416Z,1010.9
2018-06-24T06:58:51.752Z,1010.9
2018-06-24T06:59:53.127Z,1010.9
2018-06-24T07:00:54.502Z,1010.8
2018-06-24T07:01:55.889Z,1010.7
2018-06-24T07:02:57.278Z,1010.7
2018-06-24T07:03:58.665Z,1010.7
2018-06-24T07:05:00.050Z,1010.7
2018-06-24T07:06:01.445Z,1010.7
2018-06-24T07:07:02.818Z,1010.5
2018-06-24T07:08:04.193Z,1010.6
2018-06-24T07:09:05.565Z,1010.5
2018-06-24T07:10:07.024Z,1010.4
2018-06-24T07:11:08.418Z,1010.4
2018-06-24T07:12:09.804Z,1010.4
2018-06-24T07:13:11.192Z,1010.5
2018-06-24T07:14:12.586Z,1010.4
2018-06-24T07:15:13.969Z,1010.5
2018-06-24T07:16:15.350Z,1010.6
2018-06-24T07:17:16.730Z,1010.7
2018-06-24T07:18:18.104Z,1010.5
2018-06-24T07:19:19.532Z,1010.5
2018-06-24T07:20:20.914Z,1010.7
2018-06-24T07:21:22.323Z,1010.7
2018-06-24T07:22:23.694Z,1010.6
2018-06-24T07:23:25.088Z,1010.6
2018-06-24T07:24:26.474Z,1011.1
2018-06-24T07:25:27.856Z,1010.6
2018-06-24T07:26:29.248Z,1010.6
2018-06-24T07:27:30.627Z,1010.8
2018-06-24T07:28:32.010Z,1010.9
2018-06-24T07:29:33.414Z,1010.8
2018-06-24T07:30:34.789Z,1011.1
2018-06-24T07:31:36.169Z,1011.1
2018-06-24T07:32:37.553Z,1010.8
2018-06-24T07:33:38.971Z,1010.9
2018-06-24T07:34:40.304Z,1010.9
2018-06-24T07:35:41.680Z,1011.1
2018-06-24T07:36:43.073Z,1010.9
2018-06-24T07:37:44.475Z,1011.1
2018-06-24T07:38:45.890Z,1011.4
2018-06-24T07:39:47.289Z,1010.9
2018-06-24T07:40:48.688Z,1010.8
2018-06-24T07:41:50.149Z,1010.7
2018-06-24T07:42:51.590Z,1011.2
2018-06-24T07:43:53.063Z,1011.1
2018-06-24T07:44:54.449Z,1011.1
2018-06-24T07:45:55.875Z,1011.2
2018-06-24T07:46:57.278Z,1010.8
2018-06-24T07:47:58.722Z,1010.5
2018-06-24T07:49:00.167Z,1010.5
2018-06-24T07:50:01.572Z,1010.4
2018-06-24T07:51:02.963Z,1010.4
2018-06-24T07:52:04.374Z,1010.4
2018-06-24T07:53:05.799Z,1010.3
2018-06-24T07:54:07.229Z,1010.3
2018-06-24T07:55:08.619Z,1010.3
2018-06-24T07:56:10.006Z,1010.5
2018-06-24T07:57:11.403Z,1010.7
2018-06-24T07:58:12.785Z,1011.0
2018-06-24T07:59:14.175Z,1011.0
2018-06-24T08:00:15.569Z,1010.9
2018-06-24T08:01:16.981Z,1010.8
2018-06-24T08:02:18.391Z,1010.9
2018-06-24T08:03:23.221Z,1010.9
2018-06-24T08:04:24.511Z,1011.0
2018-06-24T08:05:25.895Z,1011.2
2018-06-24T08:06:27.305Z,1010.9
2018-06-24T08:07:28.684Z,1010.8
2018-06-24T08:08:30.068Z,1010.5
2018-06-24T08:09:31.446Z,1010.3
2018-06-24T08:10:32.829Z,1010.3
2018-06-24T08:11:34.200Z,1010.2
2018-06-24T08:12:35.584Z,1010.3
2018-06-24T08:13:36.960Z,1010.2
2018-06-24T08:14:38.375Z,1010.3
2018-06-24T08:15:39.750Z,1010.3
2018-06-24T08:16:41.115Z,1010.3
2018-06-24T08:17:42.515Z,1010.4
2018-06-24T08:18:43.881Z,1010.4
2018-06-24T08:19:45.274Z,1010.6
2018-06-24T08:20:46.655Z,1010.7
2018-06-24T08:21:48.048Z,1010.8
2018-06-24T08:22:50.407Z,1010.8
2018-06-24T08:23:51.780Z,1010.9
2018-06-24T08:24:53.155Z,1010.9
2018-06-24T08:25:54.555Z,1011.0
2018-06-24T08:26:55.941Z,1011.0
2018-06-24T08:27:57.323Z,1010.9
2018-06-24T08:28:58.735Z,1010.9
2018-06-24T08:30:00.111Z,1010.8
2018-06-24T08:31:01.495Z,1010.7
2018-06-24T08:32:02.883Z,1010.7
2018-06-24T08:33:04.265Z,1010.7
2018-06-24T08:34:05.652Z,1010.8
2018-06-24T08:35:07.034Z,1010.9
2018-06-24T08:36:08.436Z,1010.9
2018-06-24T08:37:09.791Z,1010.9
2018-06-24T08:38:11.165Z,1010.7
2018-06-24T08:39:12.561Z,1010.7
2018-06-24T08:40:13.943Z,1010.6
2018-06-24T08:41:15.311Z,1010.5
2018-06-24T08:42:16.716Z,1010.6
2018-06-24T08:43:18.101Z,1010.7
2018-06-24T08:44:19.523Z,1010.9
2018-06-24T08:45:20.895Z,1010.9
2018-06-24T08:46:22.269Z,1010.9
2018-06-24T08:47:23.804Z,1010.9
2018-06-24T08:48:25.194Z,1010.8
2018-06-24T08:49:26.581Z,1010.6
2018-06-24T08:50:27.966Z,1010.4
2018-06-24T08:51:29.331Z,1010.5
2018-06-24T08:52:30.720Z,1010.4
2018-06-24T08:53:32.089Z,1010.4
2018-06-24T08:54:33.464Z,1010.4
2018-06-24T08:55:34.846Z,1010.4
2018-06-24T08:56:36.224Z,1010.4
2018-06-24T08:57:37.640Z,1010.3
2018-06-24T08:58:39.031Z,1010.2
2018-06-24T08:59:40.407Z,1010.2
2018-06-24T09:00:41.869Z,1010.2
2018-06-24T09:01:43.155Z,1010.3
2018-06-24T09:02:44.536Z,1010.4
2018-06-24T09:03:45.912Z,1010.3
2018-06-24T09:04:47.302Z,1010.4
2018-06-24T09:05:48.680Z,1010.4
2018-06-24T09:06:50.105Z,1010.5
2018-06-24T09:07:51.481Z,1010.4
2018-06-24T09:08:52.872Z,1010.4
2018-06-24T09:09:54.312Z,1010.4
2018-06-24T09:10:55.676Z,1010.3
2018-06-24T09:11:57.071Z,1010.3
2018-06-24T09:12:58.458Z,1010.2
2018-06-24T09:13:59.884Z,1010.2
2018-06-24T09:15:01.226Z,1010.4
2018-06-24T09:16:02.623Z,1010.3
2018-06-24T09:17:04.041Z,1010.3
2018-06-24T09:18:05.420Z,1010.4
2018-06-24T09:19:06.802Z,1010.4
2018-06-24T09:20:08.196Z,1010.4
2018-06-24T09:21:09.588Z,1010.5
2018-06-24T09:22:10.977Z,1010.5
2018-06-24T09:23:12.340Z,1010.4
2018-06-24T09:24:13.778Z,1010.4
2018-06-24T09:25:15.146Z,1010.4
2018-06-24T09:26:16.533Z,1010.5
2018-06-24T09:27:17.928Z,1010.5
2018-06-24T09:28:20.045Z,1010.3
2018-06-24T09:29:21.437Z,1010.3
2018-06-24T09:30:22.811Z,1010.4
2018-06-24T09:31:24.198Z,1010.3
2018-06-24T09:32:25.576Z,1010.4
2018-06-24T09:33:26.963Z,1010.3
2018-06-24T09:34:28.337Z,1010.3
2018-06-24T09:35:29.719Z,1010.2
2018-06-24T09:36:31.110Z,1010.1
2018-06-24T09:37:32.483Z,1010.1
2018-06-24T09:38:33.863Z,1010.1
2018-06-24T09:39:35.241Z,1010.1
2018-06-24T09:40:36.612Z,1010.0
2018-06-24T09:41:38.002Z,1010.1
2018-06-24T09:42:39.386Z,1010.1
2018-06-24T09:43:40.762Z,1010.1
2018-06-24T09:44:42.170Z,1010.2
2018-06-24T09:45:43.554Z,1010.5
2018-06-24T09:46:44.939Z,1011.0
2018-06-24T09:47:46.335Z,1011.1
2018-06-24T09:48:47.717Z,1011.0
2018-06-24T09:49:50.036Z,1010.7
2018-06-24T09:50:51.408Z,1010.6
2018-06-24T09:51:52.802Z,1010.5
2018-06-24T09:52:54.195Z,1010.6
2018-06-24T09:53:55.570Z,1010.6
2018-06-24T09:54:56.945Z,1010.5
2018-06-24T09:55:58.346Z,1010.5
2018-06-24T09:56:59.718Z,1010.4
2018-06-24T09:58:01.098Z,1010.7
2018-06-24T09:59:02.528Z,1010.8
2018-06-24T10:00:03.986Z,1010.8
2018-06-24T10:01:05.373Z,1010.6
2018-06-24T10:02:07.166Z,1010.4
2018-06-24T10:03:08.537Z,1010.3
2018-06-24T10:04:09.996Z,1010.2
2018-06-24T10:05:11.393Z,1010.1
2018-06-24T10:06:12.801Z,1010.1
2018-06-24T10:07:14.186Z,1010.2
2018-06-24T10:08:15.575Z,1010.1
2018-06-24T10:09:16.956Z,1010.0
2018-06-24T10:10:18.336Z,1009.8
2018-06-24T10:11:20.647Z,1009.9
2018-06-24T10:12:22.052Z,1009.9
2018-06-24T10:13:23.616Z,1009.9
2018-06-24T10:14:25.012Z,1009.9
2018-06-24T10:15:26.441Z,1009.8
2018-06-24T10:16:27.833Z,1009.9
2018-06-24T10:17:29.281Z,1009.8
2018-06-24T10:18:30.601Z,1009.8
2018-06-24T10:19:31.997Z,1009.8
2018-06-24T10:20:33.368Z,1009.8
2018-06-24T10:21:34.751Z,1009.8
2018-06-24T10:22:36.135Z,1009.8
2018-06-24T10:23:37.507Z,1009.8
2018-06-24T10:24:38.881Z,1009.8
2018-06-24T10:25:40.259Z,1009.9
2018-06-24T10:26:41.644Z,1010.1
2018-06-24T10:27:43.012Z,1010.2
2018-06-24T10:28:44.390Z,1010.3
2018-06-24T10:29:45.768Z,1010.7
2018-06-24T10:30:47.158Z,1010.7
2018-06-24T10:31:48.532Z,1010.4
2018-06-24T10:32:49.988Z,1010.8
2018-06-24T10:33:51.381Z,1011.2
2018-06-24T10:34:52.761Z,1010.5
2018-06-24T10:35:54.218Z,1010.1
2018-06-24T10:36:55.597Z,1010.5
2018-06-24T10:37:56.979Z,1010.3
2018-06-24T10:38:58.371Z,1010.2
2018-06-24T10:39:59.756Z,1010.1
2018-06-24T10:41:01.139Z,1010.1
2018-06-24T10:42:02.516Z,1010.1
2018-06-24T10:43:03.899Z,1010.1
2018-06-24T10:44:05.292Z,1010.5
2018-06-24T10:45:06.666Z,1010.7
2018-06-24T10:46:08.038Z,1010.3
2018-06-24T10:47:09.439Z,1010.1
2018-06-24T10:48:10.841Z,1009.9
2018-06-24T10:49:12.228Z,1010.0
2018-06-24T10:50:13.622Z,1009.8
2018-06-24T10:51:15.029Z,1010.2
2018-06-24T10:52:16.411Z,1010.5
2018-06-24T10:53:17.796Z,1010.4
2018-06-24T10:54:19.865Z,1010.4
2018-06-24T10:55:21.251Z,1010.2
2018-06-24T10:56:22.631Z,1010.5
2018-06-24T10:57:24.018Z,1010.3
2018-06-24T10:58:25.398Z,1010.3
2018-06-24T10:59:26.810Z,1010.3
2018-06-24T11:00:28.208Z,1009.7
2018-06-24T11:01:29.595Z,1009.8
2018-06-24T11:02:30.998Z,1009.6
2018-06-24T11:03:32.382Z,1009.6
2018-06-24T11:04:33.762Z,1009.4
2018-06-24T11:05:35.153Z,1009.7
2018-06-24T11:06:36.540Z,1009.5
2018-06-24T11:07:37.945Z,1009.7
2018-06-24T11:08:39.341Z,1009.4
2018-06-24T11:09:40.754Z,1010.1
2018-06-24T11:10:42.151Z,1009.7
2018-06-24T11:11:43.538Z,1009.3
2018-06-24T11:12:44.970Z,1009.2
2018-06-24T11:13:46.352Z,1009.0
2018-06-24T11:14:47.757Z,1009.3
2018-06-24T11:15:49.157Z,1009.2
2018-06-24T11:16:50.602Z,1009.2
2018-06-24T11:17:52.026Z,1009.0
2018-06-24T11:18:53.407Z,1009.0
2018-06-24T11:19:54.798Z,1009.0
2018-06-24T11:20:56.191Z,1009.1
2018-06-24T11:21:57.584Z,1009.4
2018-06-24T11:22:58.972Z,1009.6
2018-06-24T11:24:00.423Z,1009.8
2018-06-24T11:25:01.811Z,1009.6
2018-06-24T11:26:03.193Z,1009.6
2018-06-24T11:27:04.594Z,1009.6
2018-06-24T11:28:05.982Z,1009.4
2018-06-24T11:29:07.382Z,1009.5
2018-06-24T11:30:08.768Z,1009.5
2018-06-24T11:31:10.165Z,1009.6
2018-06-24T11:32:11.547Z,1009.7
2018-06-24T11:33:12.946Z,1009.6
2018-06-24T11:34:14.333Z,1009.7
2018-06-24T11:35:15.723Z,1009.2
2018-06-24T11:36:17.146Z,1008.7
2018-06-24T11:37:18.526Z,1009.8
2018-06-24T11:38:19.921Z,1008.8
2018-06-24T11:39:21.319Z,1010.0
2018-06-24T11:40:22.701Z,1010.0
2018-06-24T11:41:24.101Z,1010.2
2018-06-24T11:42:25.488Z,1009.6
2018-06-24T11:43:26.887Z,1009.5
2018-06-24T11:44:28.288Z,1008.7
2018-06-24T11:45:29.694Z,1008.8
2018-06-24T11:46:31.076Z,1008.5
2018-06-24T11:47:32.466Z,1008.7
2018-06-24T11:48:33.835Z,1008.7
2018-06-24T11:49:35.244Z,1009.0
2018-06-24T11:50:36.622Z,1009.0
2018-06-24T11:51:38.006Z,1008.9
2018-06-24T11:52:39.399Z,1009.0
2018-06-24T11:53:40.788Z,1009.0
2018-06-24T11:54:42.162Z,1009.0
2018-06-24T11:55:43.568Z,1009.1
2018-06-24T11:56:44.963Z,1009.3
2018-06-24T11:57:46.348Z,1009.4
2018-06-24T11:58:47.740Z,1009.2
2018-06-24T11:59:49.138Z,1009.3
2018-06-24T12:00:50.522Z,1009.3
2018-06-24T12:01:54.345Z,1009.4
2018-06-24T12:02:55.732Z,1009.3
2018-06-24T12:03:57.123Z,1009.3
2018-06-24T12:04:58.504Z,1009.4
2018-06-24T12:05:59.896Z,1010.2
2018-06-24T12:07:01.286Z,1009.9
2018-06-24T12:08:02.672Z,1009.7
2018-06-24T12:09:04.057Z,1009.0
2018-06-24T12:10:08.840Z,1009.2
2018-06-24T12:11:10.223Z,1009.0
2018-06-24T12:12:12.338Z,1009.0
2018-06-24T12:13:13.743Z,1008.9
2018-06-24T12:14:16.247Z,1008.5
2018-06-24T12:15:17.653Z,1008.6
2018-06-24T12:16:20.658Z,1008.6
2018-06-24T12:17:27.668Z,1008.7
2018-06-24T12:18:26.057Z,1009.7
2018-06-24T12:19:28.464Z,1009.5
2018-06-24T12:20:29.853Z,1009.5
2018-06-24T12:21:31.292Z,1009.1
2018-06-24T12:22:32.677Z,1009.4
2018-06-24T12:23:34.062Z,1008.8
2018-06-24T12:24:35.449Z,1008.7
2018-06-24T12:25:36.840Z,1008.7
2018-06-24T12:26:38.237Z,1008.7
2018-06-24T12:27:39.628Z,1009.1
2018-06-24T12:28:41.026Z,1009.1
2018-06-24T12:29:42.404Z,1008.8
2018-06-24T12:30:43.801Z,1008.8
2018-06-24T12:31:45.189Z,1008.9
2018-06-24T12:32:46.589Z,1008.8
2018-06-24T12:33:47.970Z,1008.7
2018-06-24T12:34:55.308Z,1008.7
2018-06-24T12:35:56.734Z,1008.8
2018-06-24T12:36:58.121Z,1008.6
2018-06-24T12:37:59.508Z,1008.6
2018-06-24T12:39:00.892Z,1008.5
2018-06-24T12:40:02.279Z,1008.4
2018-06-24T12:41:03.674Z,1008.5
2018-06-24T12:42:05.068Z,1008.4
2018-06-24T12:43:06.464Z,1008.5
2018-06-24T12:44:07.853Z,1008.6
2018-06-24T12:45:09.242Z,1008.6
2018-06-24T12:46:10.624Z,1008.6